Time;durP1;ratioP1;P1;durP2;ratioP2;P2;SDS_P1;SDS_P2;PMS_P1;PMS_P2;Temp;Humidity;BMP_temperature;BMP_pressure;BME280_temperature;BME280_humidity;BME280_pressure;Samples;Min_cycle;Max_cycle;Signal;HPM_P1;HPM_P2
2022/08/20 00:02:07;;;;;;;;;;;;;;;;;;4825210;29;19925;-46
2022/08/20 00:04:34;;;;;;;;;;;;;;;;;;4824711;29;20270;-49
2022/08/20 00:07:02;;;;;;;;;;;;;;;;;;4824976;29;19931;-50
2022/08/20 00:09:29;;;;;;;;;;;;;;;;;;4824723;29;20015;-47
2022/08/20 00:11:56;;;;;;;;;;;;;;;;;;4825096;29;19935;-47
2022/08/20 00:14:24;;;;;;;;;;;;;;;;;;4824923;29;20393;-48
2022/08/20 00:16:51;;;;;;;;;;;;;;;;;;4825007;29;19924;-47
2022/08/20 00:19:18;;;;;;;;;;;;;;;;;;4820779;29;19925;-48
2022/08/20 00:21:45;;;;;;;;;;;;;;;;;;4806682;29;19925;-50
2022/08/20 00:24:12;;;;;;;;;;;;;;;;;;4806490;29;19970;-49
2022/08/20 00:26:40;;;;;;;;;;;;;;;;;;4806586;29;19925;-47
2022/08/20 00:29:17;;;;;;;;;;;;;;;;;;4806897;29;19925;-50
2022/08/20 00:31:45;;;;;;;;;;;;;;;;;;4806749;29;19925;-48
2022/08/20 00:34:13;;;;;;;;;;;;;;;;;;4806714;29;20003;-48
2022/08/20 00:36:40;;;;;;;;;;;;;;;;;;4806479;29;19932;-49
2022/08/20 00:39:07;;;;;;;;;;;;;;;;;;4806413;29;20011;-51
2022/08/20 00:41:34;;;;;;;;;;;;;;;;;;4806436;29;19929;-46
2022/08/20 00:44:07;;;;;;;;;;;;;;;;;;4806036;29;20353;-48
2022/08/20 00:46:34;;;;;;;;;;;;;;;;;;4806146;29;19929;-50
2022/08/20 00:49:04;;;;;;;;;;;;;;;;;;4806215;29;19932;-50
2022/08/20 00:51:33;;;;;;;;;;;;;;;;;;4806364;29;19978;-50
2022/08/20 00:54:04;;;;;;;;;;;;;;;;;;4806352;29;19932;-48
2022/08/20 00:56:32;;;;;;;;;;;;;;;;;;4805958;29;19979;-48
2022/08/20 00:59:00;;;;;;;;;;;;;;;;;;4806031;29;19925;-47
2022/08/20 01:01:28;;;;;;;;;;;;;;;;;;4806035;29;19925;-51
2022/08/20 01:03:56;;;;;;;;;;;;;;;;;;4805704;29;19975;-48
2022/08/20 01:06:24;;;;;;;;;;;;;;;;;;4805804;29;19972;-48
2022/08/20 01:08:51;;;;;;;;;;;;;;;;;;4805633;29;19929;-49
2022/08/20 01:11:29;;;;;;;;;;;;;;;;;;4806026;29;19990;-50
2022/08/20 01:13:57;;;;;;;;;;;;;;;;;;4805870;29;19935;-48
2022/08/20 01:16:26;;;;;;;;;;;;;;;;;;4805613;29;19931;-48
2022/08/20 01:18:55;;;;;;;;;;;;;;;;;;4806897;29;20008;-51
2022/08/20 01:21:27;;;;;;;;;;;;;;;;;;4824120;29;19928;-47
2022/08/20 01:24:05;;;;;;;;;;;;;;;;;;4823921;29;19932;-48
2022/08/20 01:26:37;;;;;;;;;;;;;;;;;;4823957;29;20333;-48
2022/08/20 01:29:06;;;;;;;;;;;;;;;;;;4823619;29;19924;-48
2022/08/20 01:31:35;;;;;;;;;;;;;;;;;;4823812;29;19931;-49
2022/08/20 01:34:04;;;;;;;;;;;;;;;;;;4824077;29;19931;-48
2022/08/20 01:36:35;;;;;;;;;;;;;;;;;;4823652;29;20321;-48
2022/08/20 01:39:05;;;;;;;;;;;;;;;;;;4823905;29;19973;-48
2022/08/20 01:41:38;;;;;;;;;;;;;;;;;;4823708;29;20049;-46
2022/08/20 01:44:05;;;;;;;;;;;;;;;;;;4823666;29;20400;-49
2022/08/20 01:46:35;;;;;;;;;;;;;;;;;;4823625;29;20304;-50
2022/08/20 01:49:10;;;;;;;;;;;;;;;;;;4823677;29;20302;-49
2022/08/20 01:51:39;;;;;;;;;;;;;;;;;;4823482;29;19924;-48
2022/08/20 01:54:07;;;;;;;;;;;;;;;;;;4823422;29;19941;-47
2022/08/20 01:56:35;;;;;;;;;;;;;;;;;;4823563;29;20671;-52
2022/08/20 01:59:07;;;;;;;;;;;;;;;;;;4823495;29;20377;-48
2022/08/20 02:01:36;;;;;;;;;;;;;;;;;;4823526;29;19956;-49
2022/08/20 02:04:13;;;;;;;;;;;;;;;;;;4823574;29;19928;-49
2022/08/20 02:06:43;;;;;;;;;;;;;;;;;;4823040;29;20300;-50
2022/08/20 02:09:23;;;;;;;;;;;;;;;;;;4823393;29;19936;-51
2022/08/20 02:11:52;;;;;;;;;;;;;;;;;;4823797;29;19932;-51
2022/08/20 02:14:19;;;;;;;;;;;;;;;;;;4823443;29;20027;-50
2022/08/20 02:16:46;;;;;;;;;;;;;;;;;;4823401;29;19924;-46
2022/08/20 02:19:22;;;;;;;;;;;;;;;;;;4818834;29;19925;-47
2022/08/20 02:21:54;;;;;;;;;;;;;;;;;;4808236;29;19932;-49
2022/08/20 02:24:21;;;;;;;;;;;;;;;;;;4808573;29;19924;-51
2022/08/20 02:26:50;;;;;;;;;;;;;;;;;;4809180;29;19941;-50
2022/08/20 02:29:17;;;;;;;;;;;;;;;;;;4808896;29;19929;-51
2022/08/20 02:31:45;;;;;;;;;;;;;;;;;;4822339;29;20101;-50
2022/08/20 02:34:35;;;;;;;;;;;;;;;;;;4808620;29;19962;-48
2022/08/20 02:37:03;;;;;;;;;;;;;;;;;;4808790;29;19924;-48
2022/08/20 02:39:30;;;;;;;;;;;;;;;;;;4808398;29;19925;-51
2022/08/20 02:41:57;;;;;;;;;;;;;;;;;;4808740;29;19928;-50
2022/08/20 02:44:24;;;;;;;;;;;;;;;;;;4808163;29;19928;-49
2022/08/20 02:46:52;;;;;;;;;;;;;;;;;;4808364;29;20373;-49
2022/08/20 02:49:19;;;;;;;;;;;;;;;;;;4808435;29;19932;-49
2022/08/20 02:51:46;;;;;;;;;;;;;;;;;;4807951;29;20386;-50
2022/08/20 02:54:13;;;;;;;;;;;;;;;;;;4808330;29;19932;-49
2022/08/20 02:56:41;;;;;;;;;;;;;;;;;;4808271;29;20355;-50
2022/08/20 02:59:08;;;;;;;;;;;;;;;;;;4807756;29;19949;-48
2022/08/20 03:01:35;;;;;;;;;;;;;;;;;;4808398;29;20286;-49
2022/08/20 03:04:02;;;;;;;;;;;;;;;;;;4808233;29;20366;-46
2022/08/20 03:06:29;;;;;;;;;;;;;;;;;;4808078;29;20305;-49
2022/08/20 03:08:57;;;;;;;;;;;;;;;;;;4808261;29;20285;-49
2022/08/20 03:11:24;;;;;;;;;;;;;;;;;;4807831;29;20403;-50
2022/08/20 03:13:51;;;;;;;;;;;;;;;;;;4808277;29;19954;-49
2022/08/20 03:16:19;;;;;;;;;;;;;;;;;;4821766;29;19925;-51
2022/08/20 03:18:46;;;;;;;;;;;;;;;;;;4807895;29;19925;-46
2022/08/20 03:21:14;;;;;;;;;;;;;;;;;;4826071;29;19924;-46
2022/08/20 03:23:41;;;;;;;;;;;;;;;;;;4825474;29;19933;-48
2022/08/20 03:26:11;;;;;;;;;;;;;;;;;;4816739;29;20397;-49
2022/08/20 03:28:38;;;;;;;;;;;;;;;;;;4807621;29;19928;-47
2022/08/20 03:31:06;;;;;;;;;;;;;;;;;;4807712;29;19929;-47
2022/08/20 03:33:33;;;;;;;;;;;;;;;;;;4807174;29;19937;-51
2022/08/20 03:36:00;;;;;;;;;;;;;;;;;;4807594;29;19974;-48
2022/08/20 03:38:28;;;;;;;;;;;;;;;;;;4807255;29;19925;-50
2022/08/20 03:40:58;;;;;;;;;;;;;;;;;;4807502;29;20309;-49
2022/08/20 03:43:25;;;;;;;;;;;;;;;;;;4807328;29;20378;-48
2022/08/20 03:45:53;;;;;;;;;;;;;;;;;;4807590;29;19925;-47
2022/08/20 03:48:21;;;;;;;;;;;;;;;;;;4807466;29;19929;-47
2022/08/20 03:50:49;;;;;;;;;;;;;;;;;;4807455;29;19962;-50
2022/08/20 03:53:17;;;;;;;;;;;;;;;;;;4807052;29;19932;-49
2022/08/20 03:55:45;;;;;;;;;;;;;;;;;;4807238;29;19948;-48
2022/08/20 03:58:20;;;;;;;;;;;;;;;;;;4807467;29;19929;-47
2022/08/20 04:00:50;;;;;;;;;;;;;;;;;;4807325;29;19925;-47
2022/08/20 04:03:17;;;;;;;;;;;;;;;;;;4807127;29;19967;-49
2022/08/20 04:05:44;;;;;;;;;;;;;;;;;;4806928;29;19940;-48
2022/08/20 04:08:14;;;;;;;;;;;;;;;;;;4807171;29;19925;-49
2022/08/20 04:10:41;;;;;;;;;;;;;;;;;;4807060;29;19931;-51
2022/08/20 04:13:09;;;;;;;;;;;;;;;;;;4806869;29;19932;-51
2022/08/20 04:15:37;;;;;;;;;;;;;;;;;;4806928;29;19924;-49
2022/08/20 04:18:06;;;;;;;;;;;;;;;;;;4806895;29;19925;-48
2022/08/20 04:20:34;;;;;;;;;;;;;;;;;;4820303;29;19932;-49
2022/08/20 04:23:02;;;;;;;;;;;;;;;;;;4824783;29;19925;-49
2022/08/20 04:25:30;;;;;;;;;;;;;;;;;;4824806;29;19931;-52
2022/08/20 04:28:04;;;;;;;;;;;;;;;;;;4825022;29;19983;-47
2022/08/20 04:30:31;;;;;;;;;;;;;;;;;;4824193;29;19925;-51
2022/08/20 04:32:59;;;;;;;;;;;;;;;;;;4824601;29;19925;-49
2022/08/20 04:35:26;;;;;;;;;;;;;;;;;;4824235;29;20361;-49
2022/08/20 04:37:58;;;;;;;;;;;;;;;;;;4824654;29;19978;-50
2022/08/20 04:43:11;;;;;;;;;;;;;;;;;;4824344;29;20418;-50
2022/08/20 04:45:39;;;;;;;;;;;;;;;;;;4823606;29;19936;-47
2022/08/20 04:48:06;;;;;;;;;;;;;;;;;;4824683;29;20453;-49
2022/08/20 04:50:38;;;;;;;;;;;;;;;;;;4824532;29;20312;-47
2022/08/20 04:53:07;;;;;;;;;;;;;;;;;;4824539;29;19932;-48
2022/08/20 04:55:37;;;;;;;;;;;;;;;;;;4824032;29;19925;-50
2022/08/20 04:58:05;;;;;;;;;;;;;;;;;;4824452;29;19931;-49
2022/08/20 05:00:32;;;;;;;;;;;;;;;;;;4824460;29;19967;-50
2022/08/20 05:03:00;;;;;;;;;;;;;;;;;;4824346;29;19956;-48
2022/08/20 05:05:27;;;;;;;;;;;;;;;;;;4824113;29;19974;-47
2022/08/20 05:07:54;;;;;;;;;;;;;;;;;;4824283;29;19979;-46
2022/08/20 05:10:22;;;;;;;;;;;;;;;;;;4824160;29;20618;-47
2022/08/20 05:12:49;;;;;;;;;;;;;;;;;;4824185;29;20393;-48
2022/08/20 05:15:25;;;;;;;;;;;;;;;;;;4824196;29;19962;-47
2022/08/20 05:17:54;;;;;;;;;;;;;;;;;;4824126;29;19925;-46
2022/08/20 05:20:22;;;;;;;;;;;;;;;;;;4811726;29;19981;-47
2022/08/20 05:22:50;;;;;;;;;;;;;;;;;;4805696;29;19929;-46
2022/08/20 05:25:17;;;;;;;;;;;;;;;;;;4805584;29;20018;-46
2022/08/20 05:27:44;;;;;;;;;;;;;;;;;;4805490;29;19925;-46
2022/08/20 05:30:13;;;;;;;;;;;;;;;;;;4805652;29;19929;-49
2022/08/20 05:32:40;;;;;;;;;;;;;;;;;;4805485;29;19925;-51
2022/08/20 05:35:10;;;;;;;;;;;;;;;;;;4804980;29;20370;-45
2022/08/20 05:37:40;;;;;;;;;;;;;;;;;;4805229;29;19925;-47
2022/08/20 05:40:09;;;;;;;;;;;;;;;;;;4805423;29;19925;-49
2022/08/20 05:42:36;;;;;;;;;;;;;;;;;;4805244;29;19929;-49
2022/08/20 05:45:04;;;;;;;;;;;;;;;;;;4805382;29;19997;-48
2022/08/20 05:47:37;;;;;;;;;;;;;;;;;;4805054;29;19925;-51
2022/08/20 05:50:09;;;;;;;;;;;;;;;;;;4805304;29;20377;-46
2022/08/20 05:52:36;;;;;;;;;;;;;;;;;;4804704;29;19929;-48
2022/08/20 05:55:05;;;;;;;;;;;;;;;;;;4804786;29;20365;-49
2022/08/20 05:57:33;;;;;;;;;;;;;;;;;;4805167;29;19929;-46
2022/08/20 06:00:01;;;;;;;;;;;;;;;;;;4819253;29;19925;-50
2022/08/20 06:05:23;;;;;;;;;;;;;;;;;;4805067;29;20411;-48
2022/08/20 06:07:50;;;;;;;;;;;;;;;;;;4805564;29;19929;-49
2022/08/20 06:10:17;;;;;;;;;;;;;;;;;;4805006;29;19932;-50
2022/08/20 06:12:44;;;;;;;;;;;;;;;;;;4805121;29;19936;-46
2022/08/20 06:15:11;;;;;;;;;;;;;;;;;;4805197;29;19925;-47
2022/08/20 06:17:39;;;;;;;;;;;;;;;;;;4804820;29;19982;-47
2022/08/20 06:20:07;;;;;;;;;;;;;;;;;;4815216;29;20342;-47
2022/08/20 06:22:34;;;;;;;;;;;;;;;;;;4822994;29;19932;-47
2022/08/20 06:25:02;;;;;;;;;;;;;;;;;;4823215;29;19925;-48
2022/08/20 06:27:29;;;;;;;;;;;;;;;;;;4823258;29;20428;-51
2022/08/20 06:29:56;;;;;;;;;;;;;;;;;;4823146;29;19925;-51
2022/08/20 06:32:25;;;;;;;;;;;;;;;;;;4823090;29;20399;-48
2022/08/20 06:35:00;;;;;;;;;;;;;;;;;;4822952;29;20016;-50
2022/08/20 06:37:30;;;;;;;;;;;;;;;;;;4823127;29;20429;-49
2022/08/20 06:40:02;;;;;;;;;;;;;;;;;;4822967;29;19932;-49
2022/08/20 06:42:29;;;;;;;;;;;;;;;;;;4822764;29;19929;-51
2022/08/20 06:44:58;;;;;;;;;;;;;;;;;;4822312;29;19935;-50
2022/08/20 06:47:25;;;;;;;;;;;;;;;;;;4823048;29;19967;-50
2022/08/20 06:49:52;;;;;;;;;;;;;;;;;;4822988;29;19977;-48
2022/08/20 06:52:20;;;;;;;;;;;;;;;;;;4822836;29;19936;-49
2022/08/20 06:54:54;;;;;;;;;;;;;;;;;;4822993;29;20304;-49
2022/08/20 06:57:22;;;;;;;;;;;;;;;;;;4823072;29;19948;-50
2022/08/20 06:59:49;;;;;;;;;;;;;;;;;;4823061;29;20513;-47
2022/08/20 07:02:19;;;;;;;;;;;;;;;;;;4822608;29;19944;-47
2022/08/20 07:04:46;;;;;;;;;;;;;;;;;;4822796;29;20308;-48
2022/08/20 07:07:16;;;;;;;;;;;;;;;;;;4823131;29;19975;-47
2022/08/20 07:09:45;;;;;;;;;;;;;;;;;;4825793;29;19932;-52
2022/08/20 07:12:13;;;;;;;;;;;;;;;;;;4825709;29;19978;-48
2022/08/20 07:14:43;;;;;;;;;;;;;;;;;;4825555;29;20390;-51
2022/08/20 07:17:11;;;;;;;;;;;;;;;;;;4825694;29;19924;-52
2022/08/20 07:19:38;;;;;;;;;;;;;;;;;;4818974;29;20040;-51
2022/08/20 07:22:05;;;;;;;;;;;;;;;;;;4807671;29;19932;-46
2022/08/20 07:24:32;;;;;;;;;;;;;;;;;;4807577;29;19924;-49
2022/08/20 07:27:03;;;;;;;;;;;;;;;;;;4806919;29;20359;-48
2022/08/20 07:32:33;;;;;;;;;;;;;;;;;;4807176;29;19936;-52
2022/08/20 07:35:06;;;;;;;;;;;;;;;;;;4807319;29;20016;-50
2022/08/20 07:37:38;;;;;;;;;;;;;;;;;;4807252;29;20290;-49
2022/08/20 07:40:06;;;;;;;;;;;;;;;;;;4806682;29;19925;-46
2022/08/20 07:42:33;;;;;;;;;;;;;;;;;;4806841;29;19976;-48
2022/08/20 07:45:00;;;;;;;;;;;;;;;;;;4806678;29;19929;-51
2022/08/20 07:47:27;;;;;;;;;;;;;;;;;;4807165;29;20008;-50
2022/08/20 07:49:54;;;;;;;;;;;;;;;;;;4807101;29;19971;-49
2022/08/20 07:52:21;;;;;;;;;;;;;;;;;;4806883;29;20300;-48
2022/08/20 07:54:49;;;;;;;;;;;;;;;;;;4807095;29;20008;-48
2022/08/20 07:57:18;;;;;;;;;;;;;;;;;;4806926;29;19932;-50
2022/08/20 07:59:45;;;;;;;;;;;;;;;;;;4807007;29;19929;-48
2022/08/20 08:02:12;;;;;;;;;;;;;;;;;;4806753;29;19925;-52
2022/08/20 08:04:39;;;;;;;;;;;;;;;;;;4806613;29;19973;-51
2022/08/20 08:07:06;;;;;;;;;;;;;;;;;;4806818;29;19925;-48
2022/08/20 08:09:34;;;;;;;;;;;;;;;;;;4806331;29;19929;-52
2022/08/20 08:12:01;;;;;;;;;;;;;;;;;;4819705;29;19974;-52
2022/08/20 08:14:31;;;;;;;;;;;;;;;;;;4806461;29;19987;-52
2022/08/20 08:17:01;;;;;;;;;;;;;;;;;;4806762;29;19968;-47
2022/08/20 08:19:35;;;;;;;;;;;;;;;;;;4811767;29;19978;-47
2022/08/20 08:22:03;;;;;;;;;;;;;;;;;;4824272;29;19963;-51
2022/08/20 08:24:30;;;;;;;;;;;;;;;;;;4838167;29;19973;-50
2022/08/20 08:26:57;;;;;;;;;;;;;;;;;;4824379;29;19935;-50
2022/08/20 08:29:25;;;;;;;;;;;;;;;;;;4824125;29;19931;-46
2022/08/20 08:31:52;;;;;;;;;;;;;;;;;;4824851;29;20326;-48
2022/08/20 08:34:19;;;;;;;;;;;;;;;;;;4824435;29;19941;-47
2022/08/20 08:36:46;;;;;;;;;;;;;;;;;;4824301;29;19932;-51
2022/08/20 08:39:15;;;;;;;;;;;;;;;;;;4824434;29;19929;-52
2022/08/20 08:41:48;;;;;;;;;;;;;;;;;;4823983;29;19994;-51
2022/08/20 08:44:21;;;;;;;;;;;;;;;;;;4824157;29;19968;-48
2022/08/20 08:46:57;;;;;;;;;;;;;;;;;;4824292;29;19928;-53
2022/08/20 08:49:33;;;;;;;;;;;;;;;;;;4824303;29;20012;-46
2022/08/20 08:52:15;;;;;;;;;;;;;;;;;;4824181;29;19924;-50
2022/08/20 08:54:44;;;;;;;;;;;;;;;;;;4823791;29;20393;-48
2022/08/20 08:57:11;;;;;;;;;;;;;;;;;;4824233;29;20004;-51
2022/08/20 08:59:39;;;;;;;;;;;;;;;;;;4837976;29;20437;-47
2022/08/20 09:02:25;;;;;;;;;;;;;;;;;;4824144;29;19928;-49
2022/08/20 09:04:55;;;;;;;;;;;;;;;;;;4838120;29;19972;-49
2022/08/20 09:07:26;;;;;;;;;;;;;;;;;;4824155;29;19978;-50
2022/08/20 09:09:53;;;;;;;;;;;;;;;;;;4837565;29;19925;-48
2022/08/20 09:12:21;;;;;;;;;;;;;;;;;;4837835;29;19924;-52
2022/08/20 09:14:49;;;;;;;;;;;;;;;;;;4823931;29;19925;-52
2022/08/20 09:17:18;;;;;;;;;;;;;;;;;;4823471;29;19925;-48
2022/08/20 09:19:45;;;;;;;;;;;;;;;;;;4816010;29;19929;-49
2022/08/20 09:22:13;;;;;;;;;;;;;;;;;;4805127;29;19925;-48
2022/08/20 09:24:41;;;;;;;;;;;;;;;;;;4805460;29;19929;-49
2022/08/20 09:27:08;;;;;;;;;;;;;;;;;;4805382;29;20424;-52
2022/08/20 09:29:36;;;;;;;;;;;;;;;;;;4805207;29;20335;-49
2022/08/20 09:32:15;;;;;;;;;;;;;;;;;;4804761;29;19925;-53
2022/08/20 09:34:44;;;;;;;;;;;;;;;;;;4805203;29;19982;-47
2022/08/20 09:37:11;;;;;;;;;;;;;;;;;;4805122;29;20308;-50
2022/08/20 09:39:41;;;;;;;;;;;;;;;;;;4805357;29;19925;-49
2022/08/20 09:42:13;;;;;;;;;;;;;;;;;;4805134;29;19925;-49
2022/08/20 09:44:41;;;;;;;;;;;;;;;;;;4804007;29;20006;-52
2022/08/20 09:47:09;;;;;;;;;;;;;;;;;;4804695;29;19932;-47
2022/08/20 09:49:39;;;;;;;;;;;;;;;;;;4818769;29;20325;-48
2022/08/20 09:52:08;;;;;;;;;;;;;;;;;;4803444;29;19929;-51
2022/08/20 09:54:36;;;;;;;;;;;;;;;;;;4803872;29;19940;-50
2022/08/20 09:57:04;;;;;;;;;;;;;;;;;;4804621;29;19925;-50
2022/08/20 09:59:32;;;;;;;;;;;;;;;;;;4803823;29;19925;-51
2022/08/20 10:01:59;;;;;;;;;;;;;;;;;;4804297;29;19925;-52
2022/08/20 10:04:26;;;;;;;;;;;;;;;;;;4802588;29;19925;-47
2022/08/20 10:06:53;;;;;;;;;;;;;;;;;;4804136;29;20349;-50
2022/08/20 10:09:20;;;;;;;;;;;;;;;;;;4804786;29;19932;-51
2022/08/20 10:11:48;;;;;;;;;;;;;;;;;;4803619;29;20382;-48
2022/08/20 10:14:18;;;;;;;;;;;;;;;;;;4804118;29;20306;-49
2022/08/20 10:16:45;;;;;;;;;;;;;;;;;;4804498;29;19925;-48
2022/08/20 10:19:12;;;;;;;;;;;;;;;;;;4807887;29;20416;-50
2022/08/20 10:21:39;;;;;;;;;;;;;;;;;;4822855;29;19931;-49
2022/08/20 10:24:06;;;;;;;;;;;;;;;;;;4822919;29;20437;-48
2022/08/20 10:26:34;;;;;;;;;;;;;;;;;;4822617;29;19929;-48
2022/08/20 10:29:01;;;;;;;;;;;;;;;;;;4822617;29;19928;-49
2022/08/20 10:31:28;;;;;;;;;;;;;;;;;;4822826;29;19932;-52
2022/08/20 10:33:56;;;;;;;;;;;;;;;;;;4822632;29;20407;-52
2022/08/20 10:36:23;;;;;;;;;;;;;;;;;;4822870;29;19936;-47
2022/08/20 10:38:53;;;;;;;;;;;;;;;;;;4823003;29;19925;-50
2022/08/20 10:41:21;;;;;;;;;;;;;;;;;;4822918;29;20290;-51
2022/08/20 10:43:48;;;;;;;;;;;;;;;;;;4825173;29;19925;-51
2022/08/20 10:46:18;;;;;;;;;;;;;;;;;;4826250;29;20339;-52
2022/08/20 10:48:45;;;;;;;;;;;;;;;;;;4825890;29;19940;-51
2022/08/20 10:51:12;;;;;;;;;;;;;;;;;;4826083;29;19928;-50
2022/08/20 10:53:40;;;;;;;;;;;;;;;;;;4825709;29;20278;-50
2022/08/20 10:56:07;;;;;;;;;;;;;;;;;;4825891;29;19925;-47
2022/08/20 10:58:37;;;;;;;;;;;;;;;;;;4825184;29;19925;-48
2022/08/20 11:01:06;;;;;;;;;;;;;;;;;;4819765;29;19999;-46
2022/08/20 11:03:34;;;;;;;;;;;;;;;;;;4806345;29;19929;-49
2022/08/20 11:06:04;;;;;;;;;;;;;;;;;;4806810;29;19974;-49
2022/08/20 11:08:31;;;;;;;;;;;;;;;;;;4806841;29;19933;-49
2022/08/20 11:11:00;;;;;;;;;;;;;;;;;;4806709;29;19929;-51
2022/08/20 11:13:28;;;;;;;;;;;;;;;;;;4807547;29;19936;-52
2022/08/20 11:15:55;;;;;;;;;;;;;;;;;;4807433;29;19925;-48
2022/08/20 11:18:22;;;;;;;;;;;;;;;;;;4807640;29;20008;-51
2022/08/20 11:20:49;;;;;;;;;;;;;;;;;;4822686;29;20293;-51
2022/08/20 11:23:17;;;;;;;;;;;;;;;;;;4807285;29;20434;-51
2022/08/20 11:25:44;;;;;;;;;;;;;;;;;;4807205;29;20782;-48
2022/08/20 11:28:11;;;;;;;;;;;;;;;;;;4807459;29;20301;-49
2022/08/20 11:30:39;;;;;;;;;;;;;;;;;;4807306;29;20313;-51
2022/08/20 11:33:06;;;;;;;;;;;;;;;;;;4807635;29;19925;-48
2022/08/20 11:35:34;;;;;;;;;;;;;;;;;;4807117;29;19932;-49
2022/08/20 11:38:15;;;;;;;;;;;;;;;;;;4807720;29;19925;-48
2022/08/20 11:40:45;;;;;;;;;;;;;;;;;;4807213;29;19925;-49
2022/08/20 11:43:13;;;;;;;;;;;;;;;;;;4807253;29;20427;-47
2022/08/20 11:45:43;;;;;;;;;;;;;;;;;;4820397;29;19933;-47
2022/08/20 11:48:10;;;;;;;;;;;;;;;;;;4807047;29;19925;-49
2022/08/20 11:50:37;;;;;;;;;;;;;;;;;;4806540;29;19956;-52
2022/08/20 11:53:04;;;;;;;;;;;;;;;;;;4806543;29;19972;-49
2022/08/20 11:55:33;;;;;;;;;;;;;;;;;;4806944;29;19925;-50
2022/08/20 11:58:00;;;;;;;;;;;;;;;;;;4806651;29;20385;-51
2022/08/20 12:00:28;;;;;;;;;;;;;;;;;;4806887;29;20356;-52
2022/08/20 12:02:59;;;;;;;;;;;;;;;;;;4821166;29;20455;-52
2022/08/20 12:05:28;;;;;;;;;;;;;;;;;;4824475;29;19948;-49
2022/08/20 12:07:56;;;;;;;;;;;;;;;;;;4824667;29;19924;-52
2022/08/20 12:10:25;;;;;;;;;;;;;;;;;;4824780;29;19968;-49
2022/08/20 12:12:53;;;;;;;;;;;;;;;;;;4824228;29;19928;-50
2022/08/20 12:15:20;;;;;;;;;;;;;;;;;;4824026;29;19934;-50
2022/08/20 12:17:47;;;;;;;;;;;;;;;;;;4824528;29;20345;-47
2022/08/20 12:20:15;;;;;;;;;;;;;;;;;;4826662;29;19931;-49
2022/08/20 12:22:43;;;;;;;;;;;;;;;;;;4806298;29;19929;-48
2022/08/20 12:25:16;;;;;;;;;;;;;;;;;;4806360;29;20443;-52
2022/08/20 12:27:44;;;;;;;;;;;;;;;;;;4806358;29;19925;-48
2022/08/20 12:30:13;;;;;;;;;;;;;;;;;;4806199;29;19931;-46
2022/08/20 12:32:41;;;;;;;;;;;;;;;;;;4806141;29;19925;-52
2022/08/20 12:35:09;;;;;;;;;;;;;;;;;;4806330;29;19931;-49
2022/08/20 12:37:37;;;;;;;;;;;;;;;;;;4806007;29;19931;-47
2022/08/20 12:40:06;;;;;;;;;;;;;;;;;;4806051;29;20298;-47
2022/08/20 12:42:36;;;;;;;;;;;;;;;;;;4805805;29;19947;-49
2022/08/20 12:45:04;;;;;;;;;;;;;;;;;;4805495;29;19929;-49
2022/08/20 12:47:33;;;;;;;;;;;;;;;;;;4806064;29;19929;-50
2022/08/20 12:50:02;;;;;;;;;;;;;;;;;;4805873;29;19971;-49
2022/08/20 12:52:31;;;;;;;;;;;;;;;;;;4805655;29;19925;-49
2022/08/20 12:54:58;;;;;;;;;;;;;;;;;;4805131;29;19925;-48
2022/08/20 12:57:27;;;;;;;;;;;;;;;;;;4806029;29;19968;-51
2022/08/20 12:59:55;;;;;;;;;;;;;;;;;;4805814;29;19974;-52
2022/08/20 13:02:22;;;;;;;;;;;;;;;;;;4805445;29;20405;-47
2022/08/20 13:04:50;;;;;;;;;;;;;;;;;;4804225;29;20377;-46
2022/08/20 13:07:17;;;;;;;;;;;;;;;;;;4805178;29;19925;-50
2022/08/20 13:09:44;;;;;;;;;;;;;;;;;;4805486;29;19925;-50
2022/08/20 13:12:13;;;;;;;;;;;;;;;;;;4805565;29;19925;-49
2022/08/20 13:14:40;;;;;;;;;;;;;;;;;;4805425;29;19974;-50
2022/08/20 13:17:07;;;;;;;;;;;;;;;;;;4805559;29;19925;-48
2022/08/20 13:19:36;;;;;;;;;;;;;;;;;;4811728;29;19933;-48
2022/08/20 13:22:03;;;;;;;;;;;;;;;;;;4823866;29;20420;-52
2022/08/20 13:24:30;;;;;;;;;;;;;;;;;;4823104;29;19971;-45
2022/08/20 13:27:09;;;;;;;;;;;;;;;;;;4823953;29;20300;-52
2022/08/20 13:29:36;;;;;;;;;;;;;;;;;;4823570;29;19968;-51
2022/08/20 13:32:04;;;;;;;;;;;;;;;;;;4823591;29;19924;-50
2022/08/20 13:34:31;;;;;;;;;;;;;;;;;;4823367;29;19981;-49
2022/08/20 13:36:58;;;;;;;;;;;;;;;;;;4823727;29;20292;-47
2022/08/20 13:39:25;;;;;;;;;;;;;;;;;;4823614;29;19932;-47
2022/08/20 13:41:52;;;;;;;;;;;;;;;;;;4823552;29;19928;-50
2022/08/20 13:44:19;;;;;;;;;;;;;;;;;;4822690;29;19974;-49
2022/08/20 13:46:47;;;;;;;;;;;;;;;;;;4823182;29;20015;-49
2022/08/20 13:49:14;;;;;;;;;;;;;;;;;;4823002;29;19925;-48
2022/08/20 13:51:41;;;;;;;;;;;;;;;;;;4823283;29;19931;-49
2022/08/20 13:54:08;;;;;;;;;;;;;;;;;;4823355;29;20448;-49
2022/08/20 13:56:36;;;;;;;;;;;;;;;;;;4813150;29;19929;-47
2022/08/20 13:59:03;;;;;;;;;;;;;;;;;;4804821;29;20449;-48
2022/08/20 14:01:30;;;;;;;;;;;;;;;;;;4804635;29;20024;-49
2022/08/20 14:03:57;;;;;;;;;;;;;;;;;;4804856;29;19991;-49
2022/08/20 14:06:34;;;;;;;;;;;;;;;;;;4804466;29;19932;-52
2022/08/20 14:09:01;;;;;;;;;;;;;;;;;;4804698;29;19957;-46
2022/08/20 14:11:28;;;;;;;;;;;;;;;;;;4804856;29;19925;-50
2022/08/20 14:13:56;;;;;;;;;;;;;;;;;;4805037;29;19947;-48
2022/08/20 14:16:23;;;;;;;;;;;;;;;;;;4805218;29;20001;-51
2022/08/20 14:18:55;;;;;;;;;;;;;;;;;;4808500;29;20015;-53
2022/08/20 14:21:22;;;;;;;;;;;;;;;;;;4808701;29;20464;-52
2022/08/20 14:23:49;;;;;;;;;;;;;;;;;;4808405;29;19925;-50
2022/08/20 14:26:16;;;;;;;;;;;;;;;;;;4808096;29;20278;-47
2022/08/20 14:28:44;;;;;;;;;;;;;;;;;;4808316;29;19931;-51
2022/08/20 14:31:11;;;;;;;;;;;;;;;;;;4808205;29;20019;-46
2022/08/20 14:33:38;;;;;;;;;;;;;;;;;;4807810;29;19958;-49
2022/08/20 14:36:10;;;;;;;;;;;;;;;;;;4807850;29;19925;-51
2022/08/20 14:38:40;;;;;;;;;;;;;;;;;;4807826;29;19928;-50
2022/08/20 14:41:07;;;;;;;;;;;;;;;;;;4807781;29;19933;-47
2022/08/20 14:43:34;;;;;;;;;;;;;;;;;;4808500;29;19925;-48
2022/08/20 14:46:01;;;;;;;;;;;;;;;;;;4807282;29;19925;-49
2022/08/20 14:48:28;;;;;;;;;;;;;;;;;;4807897;29;19925;-50
2022/08/20 14:50:58;;;;;;;;;;;;;;;;;;4807900;29;20269;-50
2022/08/20 14:53:25;;;;;;;;;;;;;;;;;;4807189;29;20007;-48
2022/08/20 14:55:52;;;;;;;;;;;;;;;;;;4807804;29;19968;-49
2022/08/20 14:58:19;;;;;;;;;;;;;;;;;;4807559;29;19925;-49
2022/08/20 15:00:46;;;;;;;;;;;;;;;;;;4807497;29;19932;-49
2022/08/20 15:03:22;;;;;;;;;;;;;;;;;;4820470;29;19932;-50
2022/08/20 15:05:49;;;;;;;;;;;;;;;;;;4806944;29;19925;-50
2022/08/20 15:08:17;;;;;;;;;;;;;;;;;;4806969;29;19925;-51
2022/08/20 15:10:44;;;;;;;;;;;;;;;;;;4807309;29;19972;-51
2022/08/20 15:13:11;;;;;;;;;;;;;;;;;;4807754;29;19925;-48
2022/08/20 15:15:39;;;;;;;;;;;;;;;;;;4807139;29;20012;-45
2022/08/20 15:18:06;;;;;;;;;;;;;;;;;;4806828;29;20392;-48
2022/08/20 15:20:35;;;;;;;;;;;;;;;;;;4820050;29;19925;-49
2022/08/20 15:23:03;;;;;;;;;;;;;;;;;;4824973;29;20015;-47
2022/08/20 15:25:34;;;;;;;;;;;;;;;;;;4824974;29;19932;-47
2022/08/20 15:28:07;;;;;;;;;;;;;;;;;;4837666;29;19929;-47
2022/08/20 15:30:38;;;;;;;;;;;;;;;;;;4824496;29;19929;-48
2022/08/20 15:33:06;;;;;;;;;;;;;;;;;;4825022;29;19956;-48
2022/08/20 15:35:33;;;;;;;;;;;;;;;;;;4825611;29;19951;-47
2022/08/20 15:38:00;;;;;;;;;;;;;;;;;;4825049;29;20015;-49
2022/08/20 15:40:28;;;;;;;;;;;;;;;;;;4825257;29;20313;-49
2022/08/20 15:42:57;;;;;;;;;;;;;;;;;;4839034;29;20394;-49
2022/08/20 15:45:24;;;;;;;;;;;;;;;;;;4823901;29;20020;-50
2022/08/20 15:47:54;;;;;;;;;;;;;;;;;;4823669;29;20007;-47
2022/08/20 15:50:24;;;;;;;;;;;;;;;;;;4824432;29;19928;-49
2022/08/20 15:52:51;;;;;;;;;;;;;;;;;;4824737;29;19936;-48
2022/08/20 15:55:20;;;;;;;;;;;;;;;;;;4824886;29;19931;-49
2022/08/20 15:57:56;;;;;;;;;;;;;;;;;;4825076;29;20022;-48
2022/08/20 16:00:25;;;;;;;;;;;;;;;;;;4824552;29;20308;-48
2022/08/20 16:03:08;;;;;;;;;;;;;;;;;;4824509;29;19925;-49
2022/08/20 16:05:54;;;;;;;;;;;;;;;;;;4823646;29;19929;-48
2022/08/20 16:08:33;;;;;;;;;;;;;;;;;;4823018;29;20385;-49
2022/08/20 16:11:19;;;;;;;;;;;;;;;;;;4823231;29;19935;-47
2022/08/20 16:14:10;;;;;;;;;;;;;;;;;;4823475;29;19973;-49
2022/08/20 16:16:42;;;;;;;;;;;;;;;;;;4824844;29;19928;-50
2022/08/20 16:19:14;;;;;;;;;;;;;;;;;;4820150;29;19933;-50
2022/08/20 16:21:42;;;;;;;;;;;;;;;;;;4806387;29;19929;-52
2022/08/20 16:24:09;;;;;;;;;;;;;;;;;;4806177;29;19925;-49
2022/08/20 16:26:44;;;;;;;;;;;;;;;;;;4806257;29;20310;-51
2022/08/20 16:29:17;;;;;;;;;;;;;;;;;;4805738;29;19932;-48
2022/08/20 16:32:02;;;;;;;;;;;;;;;;;;4806524;29;20254;-50
2022/08/20 16:34:37;;;;;;;;;;;;;;;;;;4806234;29;20023;-48
2022/08/20 16:37:10;;;;;;;;;;;;;;;;;;4806372;29;20015;-51
2022/08/20 16:39:44;;;;;;;;;;;;;;;;;;4804967;29;19989;-48
2022/08/20 16:42:11;;;;;;;;;;;;;;;;;;4805269;29;20313;-50
2022/08/20 16:44:41;;;;;;;;;;;;;;;;;;4805980;29;20499;-49
2022/08/20 16:47:15;;;;;;;;;;;;;;;;;;4806013;29;19932;-48
2022/08/20 16:49:46;;;;;;;;;;;;;;;;;;4819953;29;19948;-51
2022/08/20 16:52:13;;;;;;;;;;;;;;;;;;4805524;29;19929;-46
2022/08/20 16:54:43;;;;;;;;;;;;;;;;;;4805944;29;19986;-48
2022/08/20 16:57:11;;;;;;;;;;;;;;;;;;4819807;29;20576;-50
2022/08/20 17:00:01;;;;;;;;;;;;;;;;;;4806035;29;19925;-48
2022/08/20 17:02:28;;;;;;;;;;;;;;;;;;4805480;29;19925;-50
2022/08/20 17:04:59;;;;;;;;;;;;;;;;;;4805713;29;20381;-48
2022/08/20 17:07:29;;;;;;;;;;;;;;;;;;4805829;29;19932;-47